Cordesville, South Carolina
Current Conditions -  °F | °C
As of 12:35 AM on Sunday 21 Dec 2014 (Local Time) from KMKS Reporting Station
Overcast Overcast  
Wind Chill: 46°   Ceiling: 800
Heat Index: 46°   Visibility: 7mi
Dew Point: 43°   Wind: 3mph
Humidity: 87%   Direction: 10°N
Pressure: 30.22"   Gusts: NA
Location:  33.13°N, 79.88°W
Report Text: KMKS 210535Z AUTO 01003KT 7SM OVC008 08/06 A3022 RMK AO2
Loading
Personal Weather Stations






























Interactive Weather Map New forecast layout! Learn more

10-Day Weather Forecast

Advertisements
Track Severe Weather on mobile